Time;durP1;ratioP1;P1;durP2;ratioP2;P2;SDS_P1;SDS_P2;PMS_P1;PMS_P2;Temp;Humidity;BMP_temperature;BMP_pressure;BME280_temperature;BME280_humidity;BME280_pressure;Samples;Min_cycle;Max_cycle;Signal;HPM_P1;HPM_P2
2023/08/10 00:01:54;;;;;;;9.57;1.85;;;;;;;;;;5008264;28;20059;-71
2023/08/10 00:04:20;;;;;;;8.60;1.75;;;;;;;;;;5017988;28;20795;-71
2023/08/10 00:06:46;;;;;;;4.40;1.73;;;11.50;99.90;;;;;;5003247;28;20049;-71
2023/08/10 00:09:12;;;;;;;9.90;2.13;;;;;;;;;;5015730;28;20119;-71
2023/08/10 00:11:38;;;;;;;6.57;2.22;;;11.40;99.90;;;;;;5025947;28;20232;-71
2023/08/10 00:14:05;;;;;;;4.25;1.55;;;;;;;;;;5004721;28;20060;-72
2023/08/10 00:16:31;;;;;;;8.82;2.00;;;;;;;;;;5019025;28;20132;-71
2023/08/10 00:18:57;;;;;;;10.05;2.97;;;11.30;99.90;;;;;;5021879;28;20041;-71
2023/08/10 00:21:23;;;;;;;6.07;2.03;;;11.30;99.90;;;;;;5005728;28;20057;-72
2023/08/10 00:23:49;;;;;;;7.70;2.28;;;;;;;;;;5005803;28;20095;-72
2023/08/10 00:26:15;;;;;;;11.27;2.78;;;11.10;99.90;;;;;;5010310;28;20604;-71
2023/08/10 00:28:41;;;;;;;6.50;1.58;;;11.10;99.90;;;;;;5001402;28;20050;-72
2023/08/10 00:31:07;;;;;;;5.63;1.80;;;10.80;99.90;;;;;;5019259;28;20085;-71
2023/08/10 00:33:34;;;;;;;6.65;1.90;;;;;;;;;;5018732;28;20093;-71
2023/08/10 00:36:07;;;;;;;8.82;2.38;;;10.90;99.90;;;;;;5000593;28;20049;-70
2023/08/10 00:38:34;;;;;;;6.57;1.63;;;10.90;99.90;;;;;;5003139;28;20566;-70
2023/08/10 00:41:00;;;;;;;7.45;1.60;;;10.90;99.90;;;;;;5022271;28;20045;-71
2023/08/10 00:43:26;;;;;;;4.88;1.70;;;10.80;99.90;;;;;;5016160;28;20506;-70
2023/08/10 00:45:52;;;;;;;4.50;1.40;;;10.80;99.90;;;;;;4999553;28;20418;-70
2023/08/10 00:48:20;;;;;;;6.43;1.58;;;;;;;;;;5015847;28;20053;-71
2023/08/10 00:50:49;;;;;;;8.48;2.05;;;10.70;99.90;;;;;;5022108;28;20056;-71
2023/08/10 00:53:17;;;;;;;6.75;1.90;;;10.70;99.90;;;;;;5006155;28;20059;-71
2023/08/10 00:55:43;;;;;;;8.73;2.50;;;10.70;99.90;;;;;;5023022;28;20053;-71
2023/08/10 00:58:11;;;;;;;10.50;2.22;;;10.80;99.90;;;;;;5002989;28;20042;-70
2023/08/10 01:00:38;;;;;;;10.35;2.17;;;10.60;99.90;;;;;;5000771;28;20163;-71
2023/08/10 01:03:04;;;;;;;6.80;2.60;;;10.50;99.90;;;;;;5016995;28;20107;-71
2023/08/10 01:05:39;;;;;;;9.10;2.35;;;10.50;99.90;;;;;;5017821;28;20186;-70
2023/08/10 01:08:12;;;;;;;6.13;2.28;;;10.60;99.90;;;;;;5006325;28;20049;-71
2023/08/10 01:10:47;;;;;;;9.05;1.98;;;10.50;99.90;;;;;;5009360;28;20458;-71
2023/08/10 01:13:37;;;;;;;9.85;2.63;;;10.60;99.90;;;;;;5018090;28;20045;-71
2023/08/10 01:16:08;;;;;;;9.65;3.60;;;10.70;99.90;;;;;;5020338;28;20132;-71
2023/08/10 01:18:35;;;;;;;5.38;2.15;;;10.70;99.90;;;;;;4999036;28;20056;-70
2023/08/10 01:21:08;;;;;;;8.68;2.65;;;10.80;99.90;;;;;;5019812;28;20923;-71
2023/08/10 01:23:44;;;;;;;8.63;2.97;;;10.90;99.90;;;;;;5000657;28;20132;-72
2023/08/10 01:26:10;;;;;;;6.35;2.22;;;10.90;99.90;;;;;;5000484;28;20072;-70
2023/08/10 01:28:37;;;;;;;8.95;2.50;;;11.00;99.90;;;;;;5020757;28;20056;-71
2023/08/10 01:31:03;;;;;;;8.57;2.95;;;11.00;99.90;;;;;;5016935;28;20049;-70
2023/08/10 01:33:30;;;;;;;9.52;2.90;;;11.00;99.90;;;;;;5016424;28;20053;-71
2023/08/10 01:35:55;;;;;;;6.35;2.17;;;11.00;99.90;;;;;;5016731;28;20057;-71
2023/08/10 01:38:22;;;;;;;6.80;2.97;;;;;;;;;;5000090;28;20046;-70
2023/08/10 01:40:50;;;;;;;7.55;1.77;;;;;;;;;;5026669;28;20526;-71
2023/08/10 01:43:16;;;;;;;10.65;2.20;;;;;;;;;;5001659;28;20104;-70
2023/08/10 01:45:45;;;;;;;13.65;4.13;;;10.90;99.90;;;;;;5007107;28;20053;-72
2023/08/10 01:48:19;;;;;;;7.85;2.47;;;11.00;99.90;;;;;;5025738;28;20069;-72
2023/08/10 01:50:48;;;;;;;8.38;2.83;;;11.00;99.90;;;;;;5007495;28;20060;-71
2023/08/10 01:53:17;;;;;;;14.55;3.35;;;11.00;99.90;;;;;;5022307;28;20057;-70
2023/08/10 01:55:43;;;;;;;13.70;2.80;;;10.90;99.90;;;;;;5008365;28;20056;-70
2023/08/10 01:58:09;;;;;;;10.02;3.03;;;11.00;99.90;;;;;;5006859;28;20037;-70
2023/08/10 02:00:37;;;;;;;11.82;2.50;;;;;;;;;;5005220;28;20570;-72
2023/08/10 02:03:06;;;;;;;10.85;2.58;;;10.90;99.90;;;;;;5027077;28;20054;-71
2023/08/10 02:05:33;;;;;;;9.88;2.75;;;11.10;99.90;;;;;;5021638;28;20049;-70
2023/08/10 02:07:59;;;;;;;8.05;2.75;;;;;;;;;;5027833;28;20135;-72
2023/08/10 02:10:25;;;;;;;8.63;2.88;;;;;;;;;;5019935;28;20049;-70
2023/08/10 02:12:51;;;;;;;7.97;3.40;;;11.20;99.90;;;;;;5026349;28;20525;-70
2023/08/10 02:15:17;;;;;;;8.60;2.50;;;11.20;99.90;;;;;;5019952;28;20049;-70
2023/08/10 02:17:42;;;;;;;10.38;3.10;;;11.30;99.90;;;;;;5008735;28;20052;-71
2023/08/10 02:20:13;;;;;;;6.20;2.92;;;11.30;99.90;;;;;;5013280;28;20056;-72
2023/08/10 02:22:47;;;;;;;10.32;3.50;;;11.30;99.90;;;;;;5024291;28;20053;-71
2023/08/10 02:25:13;;;;;;;9.65;2.60;;;11.40;99.90;;;;;;5020470;28;20127;-70
2023/08/10 02:27:42;;;;;;;5.25;2.55;;;11.40;99.90;;;;;;5016019;28;20733;-72
2023/08/10 02:30:10;;;;;;;5.95;2.50;;;11.50;99.90;;;;;;4996787;28;20049;-71
2023/08/10 02:32:36;;;;;;;7.75;2.45;;;;;;;;;;5021052;28;20057;-70
2023/08/10 02:35:05;;;;;;;7.63;3.65;;;11.50;99.90;;;;;;5004083;28;20053;-71
2023/08/10 02:37:32;;;;;;;8.93;2.90;;;11.60;99.90;;;;;;5020953;28;20503;-71
2023/08/10 02:39:59;;;;;;;5.68;2.72;;;;;;;;;;5005907;28;20461;-71
2023/08/10 02:42:25;;;;;;;6.20;2.30;;;;;;;;;;5002931;28;20045;-71
2023/08/10 02:44:51;;;;;;;7.63;2.75;;;11.60;99.90;;;;;;5015270;28;20064;-71
2023/08/10 02:47:17;;;;;;;5.35;2.00;;;11.60;99.90;;;;;;5023413;28;20045;-71
2023/08/10 02:49:43;;;;;;;7.40;2.45;;;11.70;99.90;;;;;;5022525;28;20426;-70
2023/08/10 02:52:10;;;;;;;5.97;2.45;;;;;;;;;;5003343;28;20064;-71
2023/08/10 02:54:36;;;;;;;8.48;2.58;;;;;;;;;;5004764;28;20056;-71
2023/08/10 02:57:02;;;;;;;3.88;2.15;;;11.70;99.90;;;;;;5019355;28;20046;-72
2023/08/10 02:59:28;;;;;;;8.13;2.45;;;11.70;99.90;;;;;;5007584;28;20053;-71
2023/08/10 03:01:54;;;;;;;5.05;2.42;;;11.70;99.90;;;;;;5019061;28;20060;-71
2023/08/10 03:04:20;;;;;;;6.68;2.58;;;11.70;99.90;;;;;;5012653;28;20064;-72
2023/08/10 03:06:46;;;;;;;7.78;2.47;;;11.70;99.90;;;;;;5019284;28;20072;-71
2023/08/10 03:09:13;;;;;;;13.43;2.80;;;11.80;99.90;;;;;;5019503;28;20518;-70
2023/08/10 03:11:38;;;;;;;7.32;2.40;;;11.80;99.90;;;;;;5018246;28;20518;-70
2023/08/10 03:14:04;;;;;;;9.00;2.22;;;11.80;99.90;;;;;;5019339;28;20045;-72
2023/08/10 03:16:30;;;;;;;5.60;2.00;;;11.80;99.90;;;;;;5008090;28;20079;-70
2023/08/10 03:18:56;;;;;;;8.98;3.13;;;11.70;99.90;;;;;;5004087;28;20153;-70
2023/08/10 03:21:23;;;;;;;6.35;2.90;;;;;;;;;;5022939;28;20403;-71
2023/08/10 03:23:48;;;;;;;6.03;2.15;;;11.80;99.90;;;;;;5002271;28;20049;-71
2023/08/10 03:26:14;;;;;;;4.65;2.33;;;11.80;99.90;;;;;;5021420;28;20056;-71
2023/08/10 03:28:40;;;;;;;10.95;2.45;;;11.90;99.90;;;;;;5020742;28;20152;-73
2023/08/10 03:31:06;;;;;;;5.95;2.25;;;11.90;99.90;;;;;;5001907;28;20620;-70
2023/08/10 03:33:31;;;;;;;7.93;2.80;;;11.80;99.90;;;;;;5025778;28;20088;-70
2023/08/10 03:35:57;;;;;;;9.10;3.28;;;11.90;99.90;;;;;;5002959;28;20061;-71
2023/08/10 03:38:23;;;;;;;7.10;3.42;;;11.90;99.90;;;;;;5021656;28;20045;-71
2023/08/10 03:40:49;;;;;;;6.15;2.70;;;11.80;99.90;;;;;;4999882;28;20523;-70
2023/08/10 03:43:15;;;;;;;13.80;3.58;;;;;;;;;;5022607;28;20158;-70
2023/08/10 03:45:41;;;;;;;5.53;2.80;;;;;;;;;;5018107;28;20804;-71
2023/08/10 03:48:07;;;;;;;4.65;2.80;;;;;;;;;;5004916;28;20053;-71
2023/08/10 03:50:33;;;;;;;7.65;2.92;;;11.90;99.90;;;;;;5002574;28;20572;-72
2023/08/10 03:52:59;;;;;;;5.35;2.90;;;11.90;99.90;;;;;;5024555;28;20045;-72
2023/08/10 03:55:25;;;;;;;9.82;3.45;;;11.90;99.90;;;;;;5000701;28;20055;-71
2023/08/10 03:57:51;;;;;;;8.88;3.05;;;11.90;99.90;;;;;;5017795;28;20046;-71
2023/08/10 04:00:17;;;;;;;4.68;3.70;;;12.10;99.90;;;;;;5020598;28;20765;-71
2023/08/10 04:02:44;;;;;;;7.38;3.47;;;12.00;99.90;;;;;;5001498;28;20091;-71
2023/08/10 04:05:10;;;;;;;5.93;3.00;;;15.60;99.90;;;;;;5018757;28;20057;-71
2023/08/10 04:07:37;;;;;;;8.65;2.60;;;15.00;99.90;;;;;;5024275;28;20053;-71
2023/08/10 04:10:07;;;;;;;6.80;3.13;;;12.00;99.90;;;;;;5003930;28;20159;-71
2023/08/10 04:12:36;;;;;;;6.97;3.75;;;12.10;99.90;;;;;;5007169;28;20057;-72
2023/08/10 04:15:04;;;;;;;10.15;2.63;;;11.90;99.90;;;;;;5003001;28;20475;-70
2023/08/10 04:17:30;;;;;;;6.47;3.35;;;12.00;99.90;;;;;;5030263;28;20072;-71
2023/08/10 04:19:56;;;;;;;5.55;2.83;;;;;;;;;;5022043;28;20594;-70
2023/08/10 04:22:23;;;;;;;5.45;2.90;;;12.20;99.90;;;;;;5001695;28;20049;-70
2023/08/10 04:24:49;;;;;;;4.05;2.40;;;12.20;99.90;;;;;;5017628;28;20064;-71
2023/08/10 04:27:16;;;;;;;7.13;3.05;;;;;;;;;;5001345;28;20064;-71
2023/08/10 04:29:45;;;;;;;4.90;2.70;;;12.20;99.90;;;;;;5021560;28;20314;-70
2023/08/10 04:32:12;;;;;;;8.30;2.65;;;12.20;99.90;;;;;;5016898;28;20049;-70
2023/08/10 04:34:39;;;;;;;9.77;2.80;;;12.20;99.90;;;;;;5016967;28;20283;-70
2023/08/10 04:37:05;;;;;;;10.13;4.28;;;12.20;99.90;;;;;;5017334;28;20092;-70
2023/08/10 04:39:32;;;;;;;5.72;3.15;;;12.20;99.90;;;;;;5017180;28;20046;-71
2023/08/10 04:41:59;;;;;;;9.20;3.30;;;12.30;99.90;;;;;;4999649;28;20048;-70
2023/08/10 04:44:25;;;;;;;5.15;2.90;;;;;;;;;;5019817;28;20056;-71
2023/08/10 04:46:51;;;;;;;9.05;2.97;;;12.30;99.90;;;;;;5017438;28;20122;-70
2023/08/10 04:49:17;;;;;;;3.97;2.70;;;12.40;99.90;;;;;;5000807;28;20041;-71
2023/08/10 04:51:43;;;;;;;8.50;2.58;;;12.20;99.90;;;;;;5016861;28;20057;-70
2023/08/10 04:54:08;;;;;;;8.45;2.78;;;12.50;99.90;;;;;;5005048;28;20053;-71
2023/08/10 04:56:35;;;;;;;7.13;2.33;;;12.50;99.90;;;;;;5018229;28;20303;-71
2023/08/10 04:59:04;;;;;;;5.57;2.88;;;12.60;99.90;;;;;;5021017;28;20060;-71
2023/08/10 05:01:30;;;;;;;5.68;2.22;;;12.80;99.90;;;;;;5020071;28;20511;-71
2023/08/10 05:03:56;;;;;;;7.45;2.53;;;12.50;99.90;;;;;;5002771;28;20055;-71
2023/08/10 05:06:23;;;;;;;5.80;2.55;;;;;;;;;;4999889;28;20690;-71
2023/08/10 05:08:48;;;;;;;6.30;2.33;;;12.70;99.90;;;;;;5028949;28;20111;-70
2023/08/10 05:11:15;;;;;;;9.50;2.88;;;12.80;99.90;;;;;;5015194;28;20136;-72
2023/08/10 05:13:41;;;;;;;7.03;3.00;;;12.90;99.90;;;;;;5003088;28;20164;-70
2023/08/10 05:16:07;;;;;;;7.45;3.05;;;12.90;99.90;;;;;;5016402;28;20431;-71
2023/08/10 05:18:33;;;;;;;10.88;3.95;;;13.00;99.90;;;;;;5022176;28;20052;-71
2023/08/10 05:21:02;;;;;;;5.70;3.13;;;13.00;99.90;;;;;;5020957;28;20107;-71
2023/08/10 05:23:28;;;;;;;7.00;2.67;;;13.10;99.90;;;;;;5020803;28;20060;-72
2023/08/10 05:25:54;;;;;;;9.55;3.20;;;13.20;99.90;;;;;;5020558;28;20049;-71
2023/08/10 05:28:20;;;;;;;10.13;2.85;;;13.20;99.90;;;;;;5010979;28;20663;-71
2023/08/10 05:30:45;;;;;;;8.63;4.07;;;13.30;99.90;;;;;;5000813;28;20068;-70
2023/08/10 05:33:11;;;;;;;5.35;2.22;;;13.30;99.90;;;;;;5004020;28;20061;-71
2023/08/10 05:35:37;;;;;;;7.15;2.67;;;13.40;99.90;;;;;;5020595;28;20594;-71
2023/08/10 05:38:03;;;;;;;5.72;2.45;;;13.70;99.90;;;;;;5020746;28;20042;-71
2023/08/10 05:40:29;;;;;;;6.93;2.90;;;13.40;99.90;;;;;;5008795;28;20088;-71
2023/08/10 05:42:55;;;;;;;6.53;3.00;;;13.50;99.90;;;;;;5030791;28;20087;-71
2023/08/10 05:45:21;;;;;;;7.07;3.05;;;13.60;99.90;;;;;;5023016;28;20785;-71
2023/08/10 05:47:49;;;;;;;6.20;2.90;;;13.70;99.90;;;;;;5003019;28;20103;-71
2023/08/10 05:50:15;;;;;;;8.80;2.97;;;14.20;99.90;;;;;;5006935;28;20461;-71
2023/08/10 05:52:42;;;;;;;7.88;2.75;;;14.20;99.90;;;;;;5004299;28;20414;-72
2023/08/10 05:55:09;;;;;;;6.72;2.75;;;13.60;99.90;;;;;;5019655;28;20155;-71
2023/08/10 05:57:35;;;;;;;7.97;3.25;;;;;;;;;;5018445;28;20448;-71
2023/08/10 06:00:01;;;;;;;6.05;2.35;;;;;;;;;;5021230;28;20106;-71
2023/08/10 06:02:27;;;;;;;8.13;2.70;;;;;;;;;;5020709;28;20049;-71
2023/08/10 06:04:54;;;;;;;7.72;2.33;;;;;;;;;;5009597;28;20073;-71
2023/08/10 06:07:20;;;;;;;6.28;2.35;;;15.10;99.90;;;;;;5019327;28;20056;-72
2023/08/10 06:09:46;;;;;;;5.95;2.25;;;14.80;99.90;;;;;;5003519;28;20582;-71
2023/08/10 06:12:12;;;;;;;11.90;2.47;;;;;;;;;;5004545;28;20045;-71
2023/08/10 06:14:38;;;;;;;8.10;2.45;;;15.20;99.90;;;;;;5003995;28;20053;-71
2023/08/10 06:17:07;;;;;;;5.32;1.67;;;15.30;99.90;;;;;;5014028;28;20538;-72
2023/08/10 06:19:34;;;;;;;7.25;1.95;;;15.40;99.90;;;;;;5004625;28;20503;-71
2023/08/10 06:22:00;;;;;;;5.78;2.10;;;;;;;;;;5025893;28;20045;-70
2023/08/10 06:24:26;;;;;;;6.18;2.03;;;;;;;;;;5025217;28;20515;-71
2023/08/10 06:26:52;;;;;;;6.60;1.60;;;15.70;99.90;;;;;;5019609;28;20128;-71
2023/08/10 06:29:21;;;;;;;5.97;1.73;;;;;;;;;;5019204;28;20664;-72
2023/08/10 06:31:47;;;;;;;3.97;1.65;;;16.10;99.90;;;;;;5019914;28;20146;-71
2023/08/10 06:34:13;;;;;;;4.53;1.90;;;16.30;99.90;;;;;;5018970;28;20053;-71
2023/08/10 06:36:39;;;;;;;5.95;1.25;;;;;;;;;;5003510;28;20049;-72
2023/08/10 06:39:05;;;;;;;3.95;0.80;;;;;;;;;;5020485;28;20053;-71
2023/08/10 06:41:31;;;;;;;7.28;1.27;;;19.10;99.90;;;;;;5004996;28;20075;-72
2023/08/10 06:43:57;;;;;;;4.00;0.85;;;20.50;99.90;;;;;;5025230;28;20045;-72
2023/08/10 06:46:23;;;;;;;4.15;0.60;;;;;;;;;;5021929;28;20060;-72
2023/08/10 06:48:49;;;;;;;3.55;0.80;;;22.80;99.90;;;;;;5018944;28;20045;-72
2023/08/10 06:51:15;;;;;;;4.85;0.52;;;;;;;;;;5020731;28;20111;-72
2023/08/10 06:53:41;;;;;;;2.47;0.38;;;;;;;;;;5027689;28;20084;-72
2023/08/10 06:56:07;;;;;;;3.95;0.60;;;;;;;;;;5022724;28;20060;-71
2023/08/10 06:58:33;;;;;;;5.22;1.38;;;26.40;99.90;;;;;;5002828;28;20132;-72
2023/08/10 07:01:00;;;;;;;4.13;0.82;;;27.30;99.80;;;;;;5018414;28;20163;-73
2023/08/10 07:03:26;;;;;;;6.00;0.60;;;28.00;97.20;;;;;;5022128;28;20060;-72
2023/08/10 07:05:54;;;;;;;4.78;0.47;;;28.70;93.70;;;;;;5021282;28;20057;-73
2023/08/10 07:08:21;;;;;;;2.67;0.40;;;;;;;;;;5014602;28;20060;-73
2023/08/10 07:10:47;;;;;;;5.30;0.40;;;30.60;90.90;;;;;;5017422;28;20053;-73
2023/08/10 07:13:13;;;;;;;2.67;0.30;;;;;;;;;;5018024;28;20052;-73
2023/08/10 07:15:39;;;;;;;4.00;0.63;;;31.30;83.10;;;;;;5024529;28;20045;-72
2023/08/10 07:18:05;;;;;;;4.90;0.40;;;31.50;78.90;;;;;;5019045;28;20104;-73
2023/08/10 07:20:32;;;;;;;2.33;0.30;;;;;;;;;;5018573;28;20057;-72
2023/08/10 07:22:58;;;;;;;4.65;0.50;;;;;;;;;;5001382;28;20521;-73
2023/08/10 07:25:24;;;;;;;4.47;0.30;;;;;;;;;;5018179;28;20641;-73
2023/08/10 07:27:50;;;;;;;4.13;0.50;;;;;;;;;;5003011;28;20056;-73
2023/08/10 07:30:16;;;;;;;5.93;0.43;;;33.70;71.70;;;;;;5019097;28;20084;-73
2023/08/10 07:32:43;;;;;;;4.35;0.40;;;33.70;67.50;;;;;;5022003;28;20049;-74
2023/08/10 07:35:09;;;;;;;3.22;0.50;;;33.90;66.20;;;;;;5004882;28;20061;-74
2023/08/10 07:37:36;;;;;;;6.43;0.80;;;34.30;63.40;;;;;;5020195;28;20608;-74
2023/08/10 07:40:02;;;;;;;4.22;0.43;;;34.50;62.30;;;;;;5001369;28;20052;-74
2023/08/10 07:42:28;;;;;;;3.05;0.35;;;34.70;62.70;;;;;;5017949;28;20045;-73
2023/08/10 07:44:55;;;;;;;4.00;0.40;;;34.90;60.80;;;;;;5019190;28;20057;-73
2023/08/10 07:47:20;;;;;;;4.30;0.40;;;35.10;60.30;;;;;;5002546;28;20072;-72
2023/08/10 07:49:46;;;;;;;3.10;0.45;;;35.40;60.00;;;;;;5001540;28;20911;-73
2023/08/10 07:52:12;;;;;;;3.53;0.38;;;35.60;58.30;;;;;;4976972;23;20052;-73
2023/08/10 07:54:52;;;;;;;4.70;0.40;;;35.80;58.90;;;;;;4987372;28;20167;-73
2023/08/10 07:57:18;;;;;;;6.20;0.32;;;36.20;59.30;;;;;;4966036;28;20065;-74
2023/08/10 07:59:45;;;;;;;2.53;0.35;;;36.30;57.40;;;;;;4972018;28;20138;-74
2023/08/10 08:02:20;;;;;;;2.40;0.93;;;36.20;55.20;;;;;;4963674;28;20430;-70
2023/08/10 08:04:46;;;;;;;4.93;0.30;;;36.40;55.00;;;;;;4963321;28;20049;-72
2023/08/10 08:07:12;;;;;;;4.50;0.88;;;35.70;54.90;;;;;;4979088;28;20050;-74
2023/08/10 08:09:37;;;;;;;2.72;0.43;;;34.60;55.10;;;;;;4961211;28;20476;-73
2023/08/10 08:12:03;;;;;;;3.15;0.50;;;32.80;58.20;;;;;;4951717;28;20106;-74
2023/08/10 08:14:29;;;;;;;2.17;0.20;;;32.60;57.20;;;;;;4973977;28;20124;-75
2023/08/10 08:16:55;;;;;;;3.58;0.40;;;32.00;58.00;;;;;;4968795;28;20050;-74
2023/08/10 08:19:21;;;;;;;2.63;0.20;;;31.70;58.50;;;;;;4963505;23;20539;-74
2023/08/10 08:21:51;;;;;;;6.50;0.30;;;31.30;58.10;;;;;;4954967;28;20043;-74
2023/08/10 08:24:20;;;;;;;2.45;0.35;;;30.70;59.00;;;;;;4939906;28;20410;-74
2023/08/10 08:26:47;;;;;;;4.78;0.50;;;30.00;60.00;;;;;;4953072;28;20120;-74
2023/08/10 08:29:15;;;;;;;2.47;0.30;;;28.90;62.40;;;;;;4980019;28;20135;-76
2023/08/10 08:31:44;;;;;;;2.33;0.25;;;32.70;67.50;;;;;;4953125;28;20057;-73
2023/08/10 08:34:18;;;;;;;2.05;0.20;;;26.40;61.20;;;;;;4959232;28;20319;-73
2023/08/10 08:36:47;;;;;;;4.00;0.40;;;27.50;63.60;;;;;;4951008;28;20137;-73
2023/08/10 08:39:13;;;;;;;5.85;0.40;;;26.60;66.70;;;;;;4934584;28;20053;-73
2023/08/10 08:41:43;;;;;;;2.17;0.30;;;26.30;65.30;;;;;;4931629;28;20055;-74
2023/08/10 08:44:11;;;;;;;3.53;0.30;;;;;;;;;;4935549;28;20054;-74
2023/08/10 08:46:44;;;;;;;3.10;0.30;;;25.00;67.10;;;;;;4947769;28;20134;-74
2023/08/10 08:49:11;;;;;;;5.80;0.28;;;24.80;68.20;;;;;;4926868;28;20125;-74
2023/08/10 08:51:38;;;;;;;3.33;0.82;;;;;;;;;;4933832;28;20062;-72
2023/08/10 08:54:04;;;;;;;5.45;0.88;;;23.80;70.30;;;;;;4929760;28;20054;-73
2023/08/10 08:56:30;;;;;;;3.35;0.25;;;;;;;;;;4935061;28;20218;-72
2023/08/10 08:58:56;;;;;;;3.78;0.28;;;22.60;73.70;;;;;;4938502;28;20067;-73
2023/08/10 09:01:22;;;;;;;3.00;0.40;;;22.90;73.50;;;;;;4938612;28;21698;-73
2023/08/10 09:03:48;;;;;;;4.00;0.30;;;22.50;74.30;;;;;;4924761;28;20081;-72
2023/08/10 09:06:15;;;;;;;3.72;0.40;;;22.50;74.90;;;;;;4923287;28;20912;-73
2023/08/10 09:08:42;;;;;;;6.38;0.40;;;22.30;76.30;;;;;;4964352;23;20593;-73
2023/08/10 09:11:08;;;;;;;2.47;0.40;;;;;;;;;;4966290;23;21155;-73
2023/08/10 09:13:35;;;;;;;4.07;0.47;;;;;;;;;;5005314;23;20856;-71
2023/08/10 09:16:14;;;;;;;3.58;0.52;;;21.10;82.80;;;;;;5019106;23;20053;-73
2023/08/10 09:18:43;;;;;;;3.65;0.38;;;21.40;80.70;;;;;;4981668;28;21058;-73
2023/08/10 09:21:22;;;;;;;2.88;0.30;;;21.10;81.40;;;;;;5016217;22;20052;-72
2023/08/10 09:23:52;;;;;;;3.35;0.20;;;21.10;82.40;;;;;;5002831;28;20558;-74
2023/08/10 09:26:19;;;;;;;1.60;0.28;;;21.10;83.60;;;;;;4990166;28;20108;-72
2023/08/10 09:28:49;;;;;;;2.35;0.30;;;21.10;84.50;;;;;;5004652;28;20048;-72
2023/08/10 09:31:23;;;;;;;2.33;0.40;;;21.10;85.00;;;;;;5016431;28;20119;-74
2023/08/10 09:33:53;;;;;;;3.85;0.30;;;21.00;89.30;;;;;;4999901;28;20106;-72
2023/08/10 09:36:26;;;;;;;2.80;0.40;;;21.20;86.40;;;;;;5010548;28;20159;-73
2023/08/10 09:38:53;;;;;;;3.55;0.30;;;21.20;86.20;;;;;;5015350;28;20513;-72
2023/08/10 09:41:22;;;;;;;2.50;0.30;;;21.70;90.40;;;;;;5033201;28;20064;-72
2023/08/10 09:43:49;;;;;;;5.88;0.30;;;21.30;87.30;;;;;;5023504;28;21176;-73
2023/08/10 09:46:16;;;;;;;4.60;0.30;;;21.60;90.90;;;;;;5029124;28;20045;-73
2023/08/10 09:48:48;;;;;;;3.30;0.28;;;21.60;87.20;;;;;;5032354;28;20052;-73
2023/08/10 09:51:15;;;;;;;2.50;0.40;;;;;;;;;;4990859;23;20216;-73
2023/08/10 09:53:42;;;;;;;3.30;0.30;;;21.60;86.70;;;;;;5024734;22;20494;-71
2023/08/10 09:56:08;;;;;;;2.25;0.35;;;21.70;87.50;;;;;;5036270;22;20129;-72
2023/08/10 09:58:41;;;;;;;4.07;0.30;;;21.70;87.80;;;;;;5041755;28;20080;-72
2023/08/10 10:01:08;;;;;;;2.83;0.40;;;21.80;91.00;;;;;;5032240;28;20067;-73
2023/08/10 10:03:34;;;;;;;1.65;0.20;;;21.80;88.20;;;;;;5028463;28;20057;-73
2023/08/10 10:06:01;;;;;;;3.92;0.35;;;21.80;88.50;;;;;;5054964;28;20032;-72
2023/08/10 10:08:29;;;;;;;4.50;0.60;;;22.00;88.80;;;;;;5053910;28;20063;-73
2023/08/10 10:10:58;;;;;;;2.70;0.65;;;22.10;89.10;;;;;;5033929;23;20053;-73
2023/08/10 10:13:25;;;;;;;3.50;0.30;;;22.20;88.10;;;;;;5024533;22;20946;-72
2023/08/10 10:15:55;;;;;;;3.10;0.30;;;22.20;87.90;;;;;;5040047;23;20059;-72
2023/08/10 10:18:23;;;;;;;2.33;0.20;;;22.20;88.40;;;;;;5035337;28;20817;-72
2023/08/10 10:20:50;;;;;;;2.88;0.20;;;;;;;;;;5025756;28;20138;-73
2023/08/10 10:23:20;;;;;;;4.38;0.60;;;22.10;88.80;;;;;;5057370;28;20044;-72
2023/08/10 10:26:06;;;;;;;6.05;0.22;;;22.20;89.50;;;;;;5040415;28;20106;-75
2023/08/10 10:28:33;;;;;;;3.50;0.43;;;22.30;91.80;;;;;;5050543;28;20041;-73
2023/08/10 10:31:14;;;;;;;4.10;0.38;;;21.80;91.80;;;;;;5050673;28;20045;-73
2023/08/10 10:33:54;;;;;;;4.28;0.30;;;22.20;88.50;;;;;;5058566;28;20099;-73
2023/08/10 10:36:20;;;;;;;3.80;0.20;;;;;;;;;;5039879;28;20059;-73
2023/08/10 10:38:49;;;;;;;4.30;0.63;;;22.40;87.60;;;;;;5057586;28;20940;-73
2023/08/10 10:41:17;;;;;;;2.63;0.30;;;22.50;86.90;;;;;;5041394;28;20135;-72
2023/08/10 10:43:46;;;;;;;6.18;0.30;;;;;;;;;;5057597;28;20112;-73
2023/08/10 10:46:33;;;;;;;2.67;0.28;;;22.50;87.20;;;;;;5042848;23;20063;-74
2023/08/10 10:49:03;;;;;;;3.45;0.28;;;22.60;87.10;;;;;;5054623;22;20055;-71
2023/08/10 10:51:30;;;;;;;3.05;0.30;;;;;;;;;;5057187;23;20071;-71
2023/08/10 10:53:56;;;;;;;7.30;1.92;;;;;;;;;;5034092;23;20147;-73
2023/08/10 10:56:22;;;;;;;2.55;0.30;;;;;;;;;;5040249;28;20052;-72
2023/08/10 10:58:49;;;;;;;2.97;0.20;;;22.80;87.00;;;;;;5028110;28;20803;-72
2023/08/10 11:01:21;;;;;;;2.28;0.50;;;23.00;90.80;;;;;;5056912;28;20131;-72
2023/08/10 11:03:55;;;;;;;4.88;0.35;;;22.70;86.40;;;;;;5041175;28;20055;-72
2023/08/10 11:06:23;;;;;;;6.85;1.38;;;22.70;90.90;;;;;;5056079;28;20048;-72
2023/08/10 11:08:54;;;;;;;2.70;0.28;;;22.60;86.60;;;;;;5051094;28;20048;-73
2023/08/10 11:11:24;;;;;;;2.88;0.38;;;22.50;87.00;;;;;;5054799;28;20790;-73
2023/08/10 11:13:52;;;;;;;2.22;0.35;;;22.30;87.30;;;;;;5023097;28;20044;-72
2023/08/10 11:16:18;;;;;;;4.13;0.63;;;;;;;;;;5040638;28;20556;-72
2023/08/10 11:18:47;;;;;;;3.20;0.22;;;;;;;;;;5041184;28;20098;-71
2023/08/10 11:21:14;;;;;;;4.35;0.40;;;;;;;;;;5040610;28;20053;-72
2023/08/10 11:23:40;;;;;;;2.88;0.20;;;;;;;;;;5044360;22;20071;-71
2023/08/10 11:26:13;;;;;;;3.22;0.77;;;21.60;90.10;;;;;;5020575;28;20175;-72
2023/08/10 11:28:40;;;;;;;3.80;0.30;;;21.60;90.50;;;;;;5062606;23;20084;-72
2023/08/10 11:31:07;;;;;;;6.65;0.57;;;21.80;90.40;;;;;;5049993;28;20147;-72
2023/08/10 11:33:33;;;;;;;3.22;0.30;;;;;;;;;;5039123;28;20656;-72
2023/08/10 11:35:59;;;;;;;2.47;0.45;;;;;;;;;;5054957;28;20135;-72
2023/08/10 11:38:25;;;;;;;5.32;0.50;;;21.70;92.60;;;;;;5038285;28;20047;-73
2023/08/10 11:40:55;;;;;;;2.55;0.40;;;22.20;90.00;;;;;;5035059;28;20521;-73
2023/08/10 11:43:25;;;;;;;3.35;0.38;;;22.20;90.20;;;;;;5035575;28;20055;-72
2023/08/10 11:45:53;;;;;;;3.35;0.30;;;22.40;92.10;;;;;;5044649;28;20815;-71
2023/08/10 11:48:19;;;;;;;2.67;0.57;;;;;;;;;;5034814;28;20651;-71
2023/08/10 11:50:46;;;;;;;4.25;0.30;;;;;;;;;;5039524;28;20535;-74
2023/08/10 11:53:19;;;;;;;5.47;0.68;;;22.50;91.70;;;;;;5054783;28;20052;-72
2023/08/10 11:55:46;;;;;;;3.92;0.30;;;22.40;89.70;;;;;;5035451;28;20056;-73
2023/08/10 11:58:13;;;;;;;2.60;0.40;;;22.50;89.70;;;;;;5061291;22;20122;-72
2023/08/10 12:00:41;;;;;;;3.05;0.30;;;22.30;91.60;;;;;;5046074;23;20110;-72
2023/08/10 12:03:15;;;;;;;1.98;0.35;;;22.40;89.60;;;;;;4344025;28;10000840;-73
2023/08/10 12:05:49;;;;;;;2.85;0.32;;;22.20;92.40;;;;;;5050631;28;20059;-73
2023/08/10 12:08:16;;;;;;;4.28;0.43;;;;;;;;;;5036673;28;20047;-72
2023/08/10 12:10:44;;;;;;;2.90;0.38;;;22.40;89.80;;;;;;5032211;28;20568;-73
2023/08/10 12:13:14;;;;;;;4.47;0.40;;;22.50;89.80;;;;;;5047830;28;20040;-72
2023/08/10 12:15:48;;;;;;;4.13;0.47;;;22.50;89.50;;;;;;5028811;28;20051;-74
2023/08/10 12:18:16;;;;;;;4.05;0.90;;;22.50;88.80;;;;;;5043536;28;20098;-72
2023/08/10 12:20:43;;;;;;;4.88;0.40;;;22.60;89.00;;;;;;5028226;28;20158;-72
2023/08/10 12:23:10;;;;;;;2.45;0.50;;;22.60;89.40;;;;;;5031492;28;20451;-72
2023/08/10 12:25:36;;;;;;;4.15;0.60;;;22.60;89.90;;;;;;5048320;28;20046;-73
2023/08/10 12:28:03;;;;;;;5.75;0.45;;;;;;;;;;5044282;28;20045;-73
2023/08/10 12:30:29;;;;;;;4.68;0.55;;;;;;;;;;5046932;28;20055;-73
2023/08/10 12:32:55;;;;;;;1.90;0.40;;;22.80;91.80;;;;;;5048016;28;20050;-73
2023/08/10 12:35:21;;;;;;;7.10;1.77;;;22.80;89.70;;;;;;5047152;28;20048;-71
2023/08/10 12:37:50;;;;;;;5.32;0.73;;;;;;;;;;5050357;23;20080;-74
2023/08/10 12:40:16;;;;;;;3.15;0.50;;;22.80;89.70;;;;;;5026855;28;20044;-73
2023/08/10 12:42:45;;;;;;;3.53;0.45;;;22.90;89.10;;;;;;5012642;23;20571;-72
2023/08/10 12:45:12;;;;;;;3.65;0.47;;;22.90;89.30;;;;;;5027544;28;20095;-72
2023/08/10 12:47:39;;;;;;;3.33;0.40;;;22.80;89.80;;;;;;5028740;28;20052;-73
2023/08/10 12:50:12;;;;;;;2.92;0.47;;;22.30;90.10;;;;;;5014714;23;20202;-73
2023/08/10 12:52:38;;;;;;;3.55;0.45;;;22.50;90.40;;;;;;5042445;28;20064;-73
2023/08/10 12:55:04;;;;;;;8.23;0.55;;;;;;;;;;5035566;23;20056;-72
2023/08/10 12:57:31;;;;;;;5.10;0.60;;;;;;;;;;5009757;28;20048;-72
2023/08/10 12:59:59;;;;;;;2.65;0.47;;;22.50;90.10;;;;;;5026396;28;20041;-74
2023/08/10 13:02:26;;;;;;;3.25;0.70;;;22.50;90.10;;;;;;5014989;28;20052;-73
2023/08/10 13:04:52;;;;;;;4.95;0.60;;;22.40;90.20;;;;;;5031948;28;20067;-72
2023/08/10 13:07:18;;;;;;;3.28;0.60;;;22.20;90.30;;;;;;5038385;28;20040;-73
2023/08/10 13:09:44;;;;;;;3.38;0.60;;;;;;;;;;5035766;28;20364;-72
2023/08/10 13:12:11;;;;;;;4.57;0.82;;;;;;;;;;5034437;28;20801;-72